Jomi — C6VK4 — position and weather

sailwx.info

Track history (hours):
 
Tides and Currents Weather Stations Pressure Air Temp Water Temp Dewpoint Dewpoint Depression Visibility Wind Speed Wind Dir Waves Ship Positions

Jomi

Last reported at 2016-Feb-07 12:27 UTC. Time now 2016-Feb-12 01:07 UTC.
Position N 35°58' W 005°35'.

Length 88 m; draft 4.3 m.

Type: Cargo ship. MMSI: 309701000.

Date/timePositionNaut miles runAvg speedWind from/ knotsBaromVisibWave heightAir tempDewpointWater temp
2016-Feb-07 12:27N 35°58' W 005°35'8 8.7
2016-Feb-07 11:33N 36°00' W 005°26'8 7.7
2016-Feb-07 10:33N 36°03' W 005°17'  
2016-Feb-03 09:10N 36°05' W 005°11'610.5
2016-Feb-03 08:33N 36°00' W 005°17'1111.4
2016-Feb-03 07:33N 35°57' W 005°30'78 9.7
2016-Feb-02 23:30N 36°05' W 007°06'10 9.4
2016-Feb-02 22:26N 36°07' W 007°18'39 9.9
2016-Feb-02 18:29N 36°19' W 008°04'1110.4
2016-Feb-02 17:23N 36°22' W 008°18'8 9.7
2016-Feb-02 16:32N 36°24' W 008°28'1010.2
2016-Feb-02 15:32N 36°27' W 008°40'1010.0
2016-Feb-02 14:29N 36°30' W 008°53'1010.3
2016-Feb-02 13:32N 36°32' W 009°04'1010.5
2016-Feb-02 12:32N 36°35' W 009°17'10 9.5
2016-Feb-02 11:27N 36°42' W 009°26'910.0
2016-Feb-02 10:32N 36°50' W 009°32'2010.2
2016-Feb-02 08:32N 37°10' W 009°38'9 9.1
2016-Feb-02 07:32N 37°19' W 009°40'1010.0
2016-Feb-02 06:33N 37°28' W 009°44'10 9.8
2016-Feb-02 05:31N 37°38' W 009°47'10 9.9
2016-Feb-02 04:32N 37°48' W 009°49'10 9.8
2016-Feb-02 03:33N 37°57' W 009°52'1010.1
2016-Feb-02 02:33N 38°07' W 009°55'1110.4
2016-Feb-02 01:31N 38°17' W 009°59'1010.3
2016-Feb-02 00:33N 38°27' W 010°01'1010.3
2016-Feb-01 23:33N 38°37' W 010°04'1010.1
2016-Feb-01 22:32N 38°47' W 010°05'1010.1
2016-Feb-01 21:33N 38°57' W 010°05'10 9.9
2016-Feb-01 20:33N 39°07' W 010°05'1010.1
2016-Feb-01 19:32N 39°17' W 010°06'1110.7
2016-Feb-01 18:32N 39°28' W 010°05'1010.0
2016-Feb-01 17:29N 39°39' W 010°05'1010.1
2016-Feb-01 16:29N 39°49' W 010°05'1010.1
2016-Feb-01 15:32N 39°58' W 010°05'10 9.6
2016-Feb-01 14:32N 40°08' W 010°05'1010.3
2016-Feb-01 13:32N 40°18' W 010°06'10 9.6
2016-Feb-01 12:32N 40°28' W 010°06'1110.3
2016-Feb-01 11:29N 40°39' W 010°06'1010.3
2016-Feb-01 10:32N 40°48' W 010°06'10 9.5
2016-Feb-01 09:32N 40°58' W 010°05'1110.6
2016-Feb-01 08:32N 41°08' W 010°06'10 9.6
2016-Feb-01 07:32N 41°18' W 010°06'1010.0
2016-Feb-01 06:32N 41°28' W 010°06'1010.1
2016-Feb-01 05:32N 41°38' W 010°05'9 8.8
2016-Feb-01 04:33N 41°47' W 010°05'1110.4
2016-Feb-01 03:32N 41°57' W 010°06'  
Track history (hours):
 
Tides and Currents Weather Stations Pressure Air Temp Water Temp Dewpoint Dewpoint Depression Visibility Wind Speed Wind Dir Waves Ship Positions

Jomi

Last reported at 2016-Feb-07 12:27 UTC. Time now 2016-Feb-12 01:07 UTC.
Position N 35°58' W 005°35'.

Length 88 m; draft 4.3 m.

Type: Cargo ship. MMSI: 309701000.

Date/timePositionNaut miles runAvg speedWind from/ knotsBaromVisibWave heightAir tempDewpointWater temp
2016-Feb-07 12:27N 35°58' W 005°35'8 8.7
2016-Feb-07 11:33N 36°00' W 005°26'8 7.7
2016-Feb-07 10:33N 36°03' W 005°17'  
2016-Feb-03 09:10N 36°05' W 005°11'610.5
2016-Feb-03 08:33N 36°00' W 005°17'1111.4
2016-Feb-03 07:33N 35°57' W 005°30'78 9.7
2016-Feb-02 23:30N 36°05' W 007°06'10 9.4
2016-Feb-02 22:26N 36°07' W 007°18'39 9.9
2016-Feb-02 18:29N 36°19' W 008°04'1110.4
2016-Feb-02 17:23N 36°22' W 008°18'8 9.7
2016-Feb-02 16:32N 36°24' W 008°28'1010.2
2016-Feb-02 15:32N 36°27' W 008°40'1010.0
2016-Feb-02 14:29N 36°30' W 008°53'1010.3
2016-Feb-02 13:32N 36°32' W 009°04'1010.5
2016-Feb-02 12:32N 36°35' W 009°17'10 9.5
2016-Feb-02 11:27N 36°42' W 009°26'910.0
2016-Feb-02 10:32N 36°50' W 009°32'2010.2
2016-Feb-02 08:32N 37°10' W 009°38'9 9.1
2016-Feb-02 07:32N 37°19' W 009°40'1010.0
2016-Feb-02 06:33N 37°28' W 009°44'10 9.8
2016-Feb-02 05:31N 37°38' W 009°47'10 9.9
2016-Feb-02 04:32N 37°48' W 009°49'10 9.8
2016-Feb-02 03:33N 37°57' W 009°52'1010.1
2016-Feb-02 02:33N 38°07' W 009°55'1110.4
2016-Feb-02 01:31N 38°17' W 009°59'1010.3
2016-Feb-02 00:33N 38°27' W 010°01'1010.3
2016-Feb-01 23:33N 38°37' W 010°04'1010.1
2016-Feb-01 22:32N 38°47' W 010°05'1010.1
2016-Feb-01 21:33N 38°57' W 010°05'10 9.9
2016-Feb-01 20:33N 39°07' W 010°05'1010.1
2016-Feb-01 19:32N 39°17' W 010°06'1110.7
2016-Feb-01 18:32N 39°28' W 010°05'1010.0
2016-Feb-01 17:29N 39°39' W 010°05'1010.1
2016-Feb-01 16:29N 39°49' W 010°05'1010.1
2016-Feb-01 15:32N 39°58' W 010°05'10 9.6
2016-Feb-01 14:32N 40°08' W 010°05'1010.3
2016-Feb-01 13:32N 40°18' W 010°06'10 9.6
2016-Feb-01 12:32N 40°28' W 010°06'1110.3
2016-Feb-01 11:29N 40°39' W 010°06'1010.3
2016-Feb-01 10:32N 40°48' W 010°06'10 9.5
2016-Feb-01 09:32N 40°58' W 010°05'1110.6
2016-Feb-01 08:32N 41°08' W 010°06'10 9.6
2016-Feb-01 07:32N 41°18' W 010°06'1010.0
2016-Feb-01 06:32N 41°28' W 010°06'1010.1
2016-Feb-01 05:32N 41°38' W 010°05'9 8.8
2016-Feb-01 04:33N 41°47' W 010°05'1110.4
2016-Feb-01 03:32N 41°57' W 010°06'  

Dump ship's entire track history